^^
Your Local Weather - Clay, NY Station Historical Data
Daily Summary for October 5, 2017 Units:  English    Metric   Both
« Previous Day
Next Day »
Daily Weekly Monthly Yearly Custom
  High: Low: Average:
Temperature: 71.9 °F 51.8 °F 60.6 °F
Dew Point: 58.7 °F 49.5 °F 54 °F
Humidity: 94% 51% 81%
Wind Speed: 4.0mph 0.0mph 0.7mph
Wind Gust: 8.0mph - -
Wind- - West
Pressure: 30.11 in 29.98 in -
Precipitation: 0.01 in    
Historical Graphs
 
 
Tabular Data for October 5, 2017
Time Temperature Dew Point Pressure Wind Wind Speed Wind Gust Humidity Rainfall Rate (Hourly) solar
00:04 58.8 °F 54.6 °F 30.11 in NW 1.0 mph 1.0 mph 86% 0.00 in 0 W/m2
00:10 58.4 °F 53.9 °F 30.11 in WNW 1.0 mph 1.0 mph 85% 0.00 in 0 W/m2
00:16 58.3 °F 54.4 °F 30.10 in Calm   1.0 mph 87% 0.00 in 0 W/m2
00:22 58.1 °F 54.6 °F 30.10 in Calm     88% 0.00 in 0 W/m2
00:28 58.0 °F 54.8 °F 30.10 in Calm     89% 0.00 in 0 W/m2
00:34 57.8 °F 54.6 °F 30.10 in Calm     89% 0.00 in 0 W/m2
00:40 57.9 °F 55.0 °F 30.10 in Calm     90% 0.00 in 0 W/m2
00:46 58.3 °F 55.7 °F 30.10 in Calm   2.0 mph 91% 0.00 in 0 W/m2
00:52 58.9 °F 56.3 °F 30.10 in WSW 1.0 mph 2.0 mph 91% 0.00 in 0 W/m2
00:58 59.1 °F 56.5 °F 30.11 in WSW 1.0 mph 2.0 mph 91% 0.00 in 0 W/m2
01:04 59.1 °F 56.5 °F 30.10 in WSW 2.0 mph 3.0 mph 91% 0.00 in 0 W/m2
01:10 59.0 °F 56.1 °F 30.11 in WSW 2.0 mph 2.0 mph 90% 0.00 in 0 W/m2
01:16 58.9 °F 56.0 °F 30.11 in WSW 1.0 mph 3.0 mph 90% 0.00 in 0 W/m2
01:22 58.8 °F 55.9 °F 30.11 in WSW 1.0 mph 1.0 mph 90% 0.00 in 0 W/m2
01:28 58.8 °F 55.9 °F 30.11 in WSW 1.0 mph 2.0 mph 90% 0.00 in 0 W/m2
01:34 58.8 °F 55.9 °F 30.11 in WSW 1.0 mph 1.0 mph 90% 0.00 in 0 W/m2
01:40 58.8 °F 55.9 °F 30.11 in WSW 1.0 mph 2.0 mph 90% 0.00 in 0 W/m2
01:46 58.7 °F 55.8 °F 30.10 in WSW 1.0 mph 2.0 mph 90% 0.00 in 0 W/m2
01:52 58.6 °F 55.7 °F 30.10 in WSW 1.0 mph 1.0 mph 90% 0.00 in 0 W/m2
01:58 58.6 °F 56.0 °F 30.10 in Calm   1.0 mph 91% 0.00 in 0 W/m2
02:04 58.6 °F 56.0 °F 30.10 in Calm   1.0 mph 91% 0.00 in 0 W/m2
02:10 58.7 °F 56.1 °F 30.10 in WSW 1.0 mph 1.0 mph 91% 0.00 in 0 W/m2
02:16 58.7 °F 56.1 °F 30.10 in WSW 1.0 mph 1.0 mph 91% 0.00 in 0 W/m2
02:22 58.8 °F 56.2 °F 30.10 in WSW 1.0 mph 1.0 mph 91% 0.00 in 0 W/m2
02:28 58.9 °F 56.3 °F 30.10 in WSW 1.0 mph 2.0 mph 91% 0.00 in 0 W/m2
02:34 58.9 °F 56.3 °F 30.09 in Calm   1.0 mph 91% 0.00 in 0 W/m2
02:40 58.9 °F 56.3 °F 30.09 in Calm     91% 0.00 in 0 W/m2
02:46 58.9 °F 56.3 °F 30.09 in Calm     91% 0.00 in 0 W/m2
02:52 58.9 °F 56.6 °F 30.09 in WSW 1.0 mph 1.0 mph 92% 0.00 in 0 W/m2
02:58 58.9 °F 56.6 °F 30.09 in WSW 1.0 mph 2.0 mph 92% 0.00 in 0 W/m2
03:04 58.9 °F 56.6 °F 30.09 in WSW 1.0 mph 2.0 mph 92% 0.00 in 0 W/m2
03:10 58.9 °F 56.6 °F 30.09 in WSW 1.0 mph 1.0 mph 92% 0.00 in 0 W/m2
03:16 59.1 °F 56.8 °F 30.09 in WSW 1.0 mph 3.0 mph 92% 0.00 in 0 W/m2
03:22 59.2 °F 56.9 °F 30.08 in WSW 1.0 mph 1.0 mph 92% 0.00 in 0 W/m2
03:28 59.3 °F 57.0 °F 30.08 in WSW 1.0 mph 2.0 mph 92% 0.00 in 0 W/m2
03:34 59.3 °F 57.0 °F 30.08 in Calm   1.0 mph 92% 0.00 in 0 W/m2
03:40 59.2 °F 56.9 °F 30.09 in Calm     92% 0.00 in 0 W/m2
03:46 59.2 °F 56.9 °F 30.09 in Calm     92% 0.00 in 0 W/m2
03:52 59.1 °F 56.8 °F 30.08 in Calm     92% 0.00 in 0 W/m2
03:58 59.0 °F 56.7 °F 30.08 in Calm     92% 0.00 in 0 W/m2
04:04 58.8 °F 56.5 °F 30.09 in Calm   2.0 mph 92% 0.00 in 0 W/m2
04:10 58.6 °F 56.3 °F 30.09 in Calm     92% 0.00 in 0 W/m2
04:16 58.4 °F 56.1 °F 30.08 in Calm     92% 0.00 in 0 W/m2
04:22 58.3 °F 56.0 °F 30.08 in Calm     92% 0.00 in 0 W/m2
04:28 58.0 °F 55.7 °F 30.09 in Calm     92% 0.00 in 0 W/m2
04:32 57.9 °F 55.6 °F 30.08 in Calm     92% 0.00 in 0 W/m2
04:38 57.6 °F 55.3 °F 30.09 in Calm     92% 0.00 in 0 W/m2
04:44 57.2 °F 54.9 °F 30.08 in Calm     92% 0.00 in 0 W/m2
04:50 57.0 °F 54.7 °F 30.08 in Calm     92% 0.00 in 0 W/m2
04:56 56.8 °F 54.5 °F 30.08 in Calm     92% 0.00 in 0 W/m2
05:02 56.5 °F 54.2 °F 30.08 in Calm     92% 0.00 in 0 W/m2
05:08 56.5 °F 54.2 °F 30.08 in Calm     92% 0.00 in 0 W/m2
05:14 56.3 °F 54.3 °F 30.08 in Calm     93% 0.00 in 0 W/m2
05:20 56.0 °F 53.7 °F 30.08 in Calm     92% 0.00 in 0 W/m2
05:26 55.7 °F 53.7 °F 30.08 in Calm     93% 0.00 in 0 W/m2
05:32 55.6 °F 53.6 °F 30.08 in Calm     93% 0.00 in 0 W/m2
05:38 55.7 °F 53.7 °F 30.08 in Calm     93% 0.00 in 0 W/m2
05:44 55.6 °F 53.6 °F 30.08 in Calm     93% 0.00 in 0 W/m2
05:50 55.4 °F 53.4 °F 30.08 in Calm     93% 0.00 in 0 W/m2
05:56 55.2 °F 53.2 °F 30.08 in Calm     93% 0.00 in 0 W/m2
06:02 55.0 °F 53.0 °F 30.08 in Calm     93% 0.00 in 0 W/m2
06:08 55.4 °F 53.4 °F 30.08 in Calm     93% 0.00 in 0 W/m2
06:14 55.7 °F 53.7 °F 30.09 in Calm     93% 0.00 in 0 W/m2
06:20 55.9 °F 54.2 °F 30.09 in Calm     94% 0.00 in 0 W/m2
06:26 55.8 °F 54.1 °F 30.08 in Calm     94% 0.00 in 0 W/m2
06:32 55.5 °F 53.5 °F 30.08 in Calm     93% 0.00 in 0 W/m2
06:38 55.2 °F 53.2 °F 30.08 in Calm     93% 0.00 in 0 W/m2
06:44 54.8 °F 52.8 °F 30.08 in Calm     93% 0.00 in 0 W/m2
06:56 54.2 °F 52.2 °F 30.08 in Calm     93% 0.00 in 0 W/m2
07:02 53.9 °F 51.9 °F 30.08 in Calm     93% 0.00 in 0 W/m2
07:08 53.8 °F 52.1 °F 30.09 in Calm     94% 0.00 in 0 W/m2
07:14 54.1 °F 52.4 °F 30.09 in Calm     94% 0.00 in 5 W/m2
07:20 54.2 °F 52.5 °F 30.08 in Calm     94% 0.00 in 9 W/m2
07:26 54.4 °F 52.7 °F 30.08 in Calm     94% 0.00 in 14 W/m2
07:32 54.6 °F 52.9 °F 30.09 in Calm     94% 0.00 in 16 W/m2
07:38 54.6 °F 52.9 °F 30.09 in Calm     94% 0.00 in 16 W/m2
07:46 54.8 °F 53.1 °F 30.09 in Calm     94% 0.00 in 32 W/m2
07:52 55.0 °F 53.3 °F 30.09 in Calm     94% 0.00 in 40 W/m2
07:58 55.3 °F 53.6 °F 30.09 in Calm     94% 0.00 in 49 W/m2
08:04 55.5 °F 53.8 °F 30.09 in Calm     94% 0.00 in 46 W/m2
08:10 55.9 °F 54.2 °F 30.10 in Calm     94% 0.00 in 51 W/m2
08:16 56.4 °F 54.7 °F 30.09 in Calm     94% 0.00 in 42 W/m2
08:22 56.6 °F 54.9 °F 30.10 in Calm   1.0 mph 94% 0.00 in 35 W/m2
08:28 56.7 °F 55.0 °F 30.10 in Calm   1.0 mph 94% 0.00 in 81 W/m2
08:34 57.0 °F 55.3 °F 30.10 in Calm     94% 0.00 in 62 W/m2
08:40 57.0 °F 55.3 °F 30.09 in Calm     94% 0.00 in 62 W/m2
08:46 57.4 °F 55.7 °F 30.09 in Calm   2.0 mph 94% 0.00 in 105 W/m2
08:52 57.8 °F 56.1 °F 30.09 in WSW 1.0 mph 1.0 mph 94% 0.00 in 149 W/m2
09:04 58.4 °F 56.7 °F 30.10 in Calm   1.0 mph 94% 0.00 in 137 W/m2
09:10 58.9 °F 57.2 °F 30.10 in WSW 1.0 mph 2.0 mph 94% 0.00 in 97 W/m2
09:16 59.1 °F 57.4 °F 30.09 in Calm   2.0 mph 94% 0.00 in 70 W/m2
09:22 59.5 °F 57.8 °F 30.09 in Calm   1.0 mph 94% 0.00 in 128 W/m2
09:28 59.7 °F 58.0 °F 30.09 in Calm   2.0 mph 94% 0.00 in 91 W/m2
09:34 60.0 °F 58.0 °F 30.09 in WSW 1.0 mph 3.0 mph 93% 0.00 in 279 W/m2
09:46 62.6 °F 58.7 °F 30.09 in Calm   1.0 mph 87% 0.00 in 373 W/m2
09:52 62.9 °F 57.3 °F 30.09 in Calm   3.0 mph 82% 0.00 in 216 W/m2
09:58 63.1 °F 57.9 °F 30.09 in WSW 1.0 mph 3.0 mph 83% 0.00 in 529 W/m2
10:04 63.8 °F 56.4 °F 30.09 in WSW 1.0 mph 1.0 mph 77% 0.00 in 541 W/m2
10:10 65.1 °F 58.1 °F 30.09 in Calm     78% 0.00 in 519 W/m2
10:16 64.6 °F 56.1 °F 30.09 in West 1.0 mph 1.0 mph 74% 0.00 in 524 W/m2
10:22 64.6 °F 56.1 °F 30.09 in WNW 1.0 mph 1.0 mph 74% 0.00 in 139 W/m2
10:28 64.7 °F 56.6 °F 30.09 in Calm   2.0 mph 75% 0.00 in 216 W/m2
10:34 65.0 °F 55.4 °F 30.09 in West 1.0 mph 2.0 mph 71% 0.00 in 471 W/m2
10:40 66.0 °F 55.5 °F 30.09 in NNW 1.0 mph 3.0 mph 69% 0.00 in 392 W/m2
10:46 65.3 °F 54.9 °F 30.09 in West 1.0 mph 3.0 mph 69% 0.00 in 387 W/m2
10:52 66.0 °F 55.1 °F 30.09 in SW 1.0 mph 1.0 mph 68% 0.00 in 357 W/m2
10:58 65.6 °F 54.8 °F 30.09 in WSW 2.0 mph 2.0 mph 68% 0.00 in 564 W/m2
11:04 66.1 °F 54.4 °F 30.09 in SW 2.0 mph 5.0 mph 66% 0.00 in 645 W/m2
11:10 66.4 °F 54.3 °F 30.09 in WNW 1.0 mph 2.0 mph 65% 0.00 in 661 W/m2
11:16 66.4 °F 55.9 °F 30.08 in WSW 1.0 mph 5.0 mph 69% 0.00 in 671 W/m2
11:22 67.0 °F 55.3 °F 30.08 in NNW 1.0 mph 1.0 mph 66% 0.00 in 652 W/m2
11:28 67.5 °F 55.7 °F 30.08 in Calm   1.0 mph 66% 0.00 in 673 W/m2
11:34 68.7 °F 55.2 °F 30.07 in NW 1.0 mph 3.0 mph 62% 0.00 in 684 W/m2
11:40 67.6 °F 54.1 °F 30.07 in West 1.0 mph 1.0 mph 62% 0.00 in 162 W/m2
11:46 67.5 °F 54.0 °F 30.07 in NNW 1.0 mph 3.0 mph 62% 0.00 in 761 W/m2
11:52 67.8 °F 54.7 °F 30.07 in SW 2.0 mph 5.0 mph 63% 0.00 in 645 W/m2
11:58 67.3 °F 53.8 °F 30.07 in South 2.0 mph 5.0 mph 62% 0.00 in 724 W/m2
12:04 67.6 °F 51.8 °F 30.07 in West 3.0 mph 6.0 mph 57% 0.00 in 708 W/m2
12:16 68.1 °F 52.8 °F 30.07 in WSW 2.0 mph 5.0 mph 58% 0.00 in 724 W/m2
12:22 67.9 °F 53.5 °F 30.07 in WSW 4.0 mph 4.0 mph 60% 0.00 in 782 W/m2
12:28 68.0 °F 53.6 °F 30.06 in WNW 2.0 mph 4.0 mph 60% 0.00 in 202 W/m2
12:34 67.9 °F 54.0 °F 30.06 in WSW 1.0 mph 2.0 mph 61% 0.00 in 202 W/m2
12:40 69.7 °F 54.3 °F 30.06 in NNW 2.0 mph 2.0 mph 58% 0.00 in 299 W/m2
12:46 68.4 °F 53.5 °F 30.06 in NNW 2.0 mph 2.0 mph 59% 0.00 in 302 W/m2
12:52 69.7 °F 54.7 °F 30.05 in NW 1.0 mph 2.0 mph 59% 0.00 in 863 W/m2
12:58 68.0 °F 52.7 °F 30.05 in SW 2.0 mph 8.0 mph 58% 0.00 in 803 W/m2
13:04 69.7 °F 55.6 °F 30.05 in SW 2.0 mph 2.0 mph 61% 0.00 in 844 W/m2
13:10 70.5 °F 55.0 °F 30.04 in NW 2.0 mph 2.0 mph 58% 0.00 in 803 W/m2
13:22 68.3 °F 52.9 °F 30.04 in WSW 1.0 mph 2.0 mph 58% 0.00 in 367 W/m2
13:28 67.9 °F 52.1 °F 30.04 in NW 1.0 mph 3.0 mph 57% 0.00 in 151 W/m2
13:40 67.2 °F 53.3 °F 30.03 in WSW 1.0 mph 1.0 mph 61% 0.00 in 313 W/m2
13:46 68.4 °F 54.4 °F 30.02 in NNW 1.0 mph 2.0 mph 61% 0.00 in 610 W/m2
13:52 68.7 °F 54.3 °F 30.02 in WNW 2.0 mph 2.0 mph 60% 0.00 in 770 W/m2
13:58 70.0 °F 55.0 °F 30.02 in WSW 2.0 mph 3.0 mph 59% 0.00 in 766 W/m2
14:04 70.5 °F 53.6 °F 30.01 in NNW 2.0 mph 2.0 mph 55% 0.00 in 768 W/m2
14:10 69.4 °F 53.5 °F 30.01 in SW 2.0 mph 2.0 mph 57% 0.00 in 185 W/m2
14:16 69.9 °F 52.5 °F 30.01 in SW 3.0 mph 5.0 mph 54% 0.00 in 664 W/m2
14:22 70.7 °F 53.2 °F 30.01 in SW 3.0 mph 5.0 mph 54% 0.00 in 680 W/m2
14:28 70.9 °F 52.4 °F 30.01 in WSW 3.0 mph 5.0 mph 52% 0.00 in 680 W/m2
14:34 71.2 °F 52.1 °F 30.01 in SW 2.0 mph 7.0 mph 51% 0.00 in 673 W/m2
14:40 70.6 °F 53.1 °F 30.02 in WSW 4.0 mph 4.0 mph 54% 0.00 in 659 W/m2
14:46 70.8 °F 53.3 °F 30.01 in West 3.0 mph 5.0 mph 54% 0.00 in 633 W/m2
14:52 71.5 °F 55.5 °F 30.01 in WSW 2.0 mph 2.0 mph 57% 0.00 in 643 W/m2
14:58 71.3 °F 53.3 °F 30.00 in WSW 1.0 mph 3.0 mph 53% 0.00 in 661 W/m2
15:04 71.2 °F 55.7 °F 30.00 in NW 1.0 mph 5.0 mph 58% 0.00 in 566 W/m2
15:10 71.7 °F 53.1 °F 30.00 in NW 2.0 mph 3.0 mph 52% 0.00 in 643 W/m2
15:16 71.9 °F 53.8 °F 30.00 in WNW 2.0 mph 4.0 mph 53% 0.00 in 548 W/m2
15:22 70.2 °F 54.2 °F 30.00 in WNW 1.0 mph 2.0 mph 57% 0.00 in 105 W/m2
15:28 70.6 °F 54.6 °F 30.00 in WNW 1.0 mph 2.0 mph 57% 0.00 in 571 W/m2
15:30 70.9 °F 53.9 °F 30.00 in NW 1.0 mph 1.0 mph 55% 0.00 in 577 W/m2
15:36 71.1 °F 54.6 °F 30.01 in NNW 2.0 mph 2.0 mph 56% 0.00 in 578 W/m2
15:48 70.5 °F 54.5 °F 30.00 in SW 1.0 mph 2.0 mph 57% 0.00 in 512 W/m2
15:54 70.8 °F 54.8 °F 30.00 in NNW 1.0 mph 5.0 mph 57% 0.00 in 503 W/m2
16:00 70.3 °F 54.8 °F 30.00 in NW 2.0 mph 2.0 mph 58% 0.00 in 445 W/m2
16:06 70.3 °F 55.8 °F 29.99 in NW 2.0 mph 4.0 mph 60% 0.00 in 424 W/m2
16:12 69.5 °F 55.5 °F 30.00 in NW 3.0 mph 3.0 mph 61% 0.00 in 410 W/m2
16:18 69.4 °F 55.8 °F 30.00 in NW 2.0 mph 4.0 mph 62% 0.00 in 390 W/m2
16:30 69.4 °F 54.9 °F 29.99 in WNW 2.0 mph 4.0 mph 60% 0.00 in 359 W/m2
16:36 68.6 °F 55.1 °F 30.00 in NW 3.0 mph 8.0 mph 62% 0.00 in 341 W/m2
16:42 68.2 °F 55.1 °F 30.00 in North 4.0 mph 4.0 mph 63% 0.00 in 323 W/m2
16:48 68.1 °F 55.0 °F 29.99 in NW 3.0 mph 5.0 mph 63% 0.00 in 306 W/m2
16:54 68.2 °F 54.7 °F 29.99 in North 2.0 mph 3.0 mph 62% 0.00 in 290 W/m2
17:00 68.2 °F 55.1 °F 29.99 in NNW 2.0 mph 2.0 mph 63% 0.00 in 272 W/m2
17:06 68.1 °F 54.6 °F 29.99 in NNW 2.0 mph 2.0 mph 62% 0.00 in 255 W/m2
17:12 67.8 °F 54.7 °F 29.99 in WNW 2.0 mph 2.0 mph 63% 0.00 in 237 W/m2
17:18 67.4 °F 54.4 °F 29.99 in NW 1.0 mph 2.0 mph 63% 0.00 in 220 W/m2
17:24 67.1 °F 54.5 °F 29.99 in NW 1.0 mph 3.0 mph 64% 0.00 in 202 W/m2
17:30 66.8 °F 54.7 °F 29.98 in NW 1.0 mph 2.0 mph 65% 0.00 in 30 W/m2
17:36 66.2 °F 54.1 °F 29.99 in NW 1.0 mph 2.0 mph 65% 0.00 in 26 W/m2
17:42 65.8 °F 54.1 °F 29.99 in NW 1.0 mph 3.0 mph 66% 0.00 in 25 W/m2
17:48 65.4 °F 54.2 °F 29.98 in NW 1.0 mph 3.0 mph 67% 0.00 in 23 W/m2
17:54 65.1 °F 53.9 °F 29.98 in Calm   1.0 mph 67% 0.00 in 21 W/m2
18:00 64.8 °F 54.0 °F 29.98 in WNW 1.0 mph 1.0 mph 68% 0.00 in 19 W/m2
18:06 64.6 °F 53.8 °F 29.99 in WNW 1.0 mph 1.0 mph 68% 0.00 in 18 W/m2
18:12 64.2 °F 53.8 °F 29.99 in Calm     69% 0.00 in 14 W/m2
18:18 63.8 °F 53.8 °F 29.99 in Calm     70% 0.00 in 12 W/m2
18:24 63.4 °F 54.2 °F 29.99 in Calm     72% 0.00 in 11 W/m2
18:30 62.9 °F 54.5 °F 29.99 in Calm     74% 0.00 in 7 W/m2
18:36 62.4 °F 54.4 °F 29.99 in Calm     75% 0.00 in 5 W/m2
18:42 61.7 °F 54.1 °F 29.99 in Calm     76% 0.00 in 0 W/m2
18:48 61.0 °F 54.1 °F 30.00 in Calm     78% 0.00 in 0 W/m2
18:54 60.3 °F 53.8 °F 30.00 in Calm     79% 0.00 in 0 W/m2
19:02 59.3 °F 53.1 °F 30.00 in Calm     80% 0.00 in 0 W/m2
19:08 58.8 °F 53.0 °F 30.00 in Calm     81% 0.00 in 0 W/m2
19:14 58.4 °F 52.9 °F 30.00 in Calm     82% 0.00 in 0 W/m2
19:20 57.9 °F 52.8 °F 30.01 in Calm     83% 0.00 in 0 W/m2
19:26 57.5 °F 52.4 °F 30.01 in Calm     83% 0.00 in 0 W/m2
19:32 57.1 °F 52.0 °F 30.01 in Calm     83% 0.00 in 0 W/m2
19:34 57.0 °F 52.2 °F 30.01 in Calm     84% 0.00 in 0 W/m2
19:40 56.8 °F 52.3 °F 30.01 in Calm     85% 0.00 in 0 W/m2
19:46 56.5 °F 52.0 °F 30.01 in Calm     85% 0.00 in 0 W/m2
19:52 56.2 °F 51.7 °F 30.02 in Calm     85% 0.00 in 0 W/m2
19:58 55.8 °F 51.4 °F 30.02 in Calm     85% 0.00 in 0 W/m2
20:10 55.2 °F 51.1 °F 30.02 in Calm     86% 0.00 in 0 W/m2
20:16 54.9 °F 51.1 °F 30.02 in Calm     87% 0.00 in 0 W/m2
20:22 54.7 °F 51.2 °F 30.02 in Calm     88% 0.00 in 0 W/m2
20:28 54.4 °F 50.9 °F 30.02 in Calm     88% 0.00 in 0 W/m2
20:34 54.2 °F 50.7 °F 30.03 in Calm     88% 0.00 in 0 W/m2
20:40 53.9 °F 50.7 °F 30.02 in Calm     89% 0.00 in 0 W/m2
20:52 53.5 °F 50.3 °F 30.02 in Calm     89% 0.00 in 0 W/m2
20:58 53.2 °F 50.0 °F 30.02 in Calm     89% 0.00 in 0 W/m2
21:04 53.1 °F 50.2 °F 30.02 in Calm     90% 0.00 in 0 W/m2
21:10 53.0 °F 50.1 °F 30.03 in Calm     90% 0.00 in 0 W/m2
21:16 53.0 °F 50.1 °F 30.03 in Calm     90% 0.00 in 0 W/m2
21:22 53.1 °F 50.5 °F 30.03 in Calm     91% 0.00 in 0 W/m2
21:28 53.3 °F 50.7 °F 30.03 in Calm     91% 0.00 in 0 W/m2
21:34 53.4 °F 50.8 °F 30.03 in Calm     91% 0.00 in 0 W/m2
21:40 53.4 °F 50.8 °F 30.03 in Calm     91% 0.00 in 0 W/m2
21:46 53.4 °F 50.8 °F 30.03 in Calm     91% 0.00 in 0 W/m2
21:52 53.4 °F 50.8 °F 30.03 in Calm     91% 0.00 in 0 W/m2
21:58 53.2 °F 50.6 °F 30.03 in Calm     91% 0.00 in 0 W/m2
22:04 53.2 °F 50.6 °F 30.03 in Calm     91% 0.00 in 0 W/m2
22:10 53.0 °F 50.4 °F 30.03 in Calm     91% 0.00 in 0 W/m2
22:16 52.8 °F 50.2 °F 30.03 in Calm     91% 0.00 in 0 W/m2
22:22 52.5 °F 49.9 °F 30.04 in Calm     91% 0.00 in 0 W/m2
22:28 52.3 °F 49.8 °F 30.03 in Calm     91% 0.00 in 0 W/m2
22:34 52.1 °F 49.6 °F 30.04 in Calm     91% 0.00 in 0 W/m2
22:40 52.0 °F 49.7 °F 30.03 in Calm     92% 0.00 in 0 W/m2
22:46 51.9 °F 49.6 °F 30.03 in Calm     92% 0.00 in 0 W/m2
22:52 51.9 °F 49.6 °F 30.03 in Calm     92% 0.00 in 0 W/m2
22:58 51.9 °F 49.6 °F 30.04 in Calm     92% 0.00 in 0 W/m2
23:06 51.9 °F 49.6 °F 30.04 in Calm     92% 0.00 in 0 W/m2
23:12 51.8 °F 49.5 °F 30.04 in Calm     92% 0.00 in 0 W/m2
23:18 51.9 °F 49.6 °F 30.04 in Calm     92% 0.00 in 0 W/m2
23:26 52.1 °F 49.8 °F 30.04 in Calm     92% 0.00 in 0 W/m2
23:28 52.1 °F 49.8 °F 30.04 in Calm     92% 0.00 in 0 W/m2
23:34 52.1 °F 49.8 °F 30.04 in Calm     92% 0.00 in 0 W/m2
23:40 52.0 °F 49.7 °F 30.03 in Calm     92% 0.00 in 0 W/m2
23:46 52.0 °F 50.0 °F 30.03 in Calm     93% 0.00 in 0 W/m2
23:52 52.0 °F 50.0 °F 30.03 in Calm     93% 0.00 in 0 W/m2
Country Meadow, Clay, NY, USA
Compliments of Weather Underground - 2 mb